Time;durP1;ratioP1;P1;durP2;ratioP2;P2;SDS_P1;SDS_P2;PMS_P1;PMS_P2;Temp;Humidity;BMP_temperature;BMP_pressure;BME280_temperature;BME280_humidity;BME280_pressure;Samples;Min_cycle;Max_cycle;Signal;HPM_P1;HPM_P2
2021/12/10 00:01:00;;;;;;;9.80;6.30;;;3.10;99.90;;;;;;1935149;72;22119;-86
2021/12/10 00:03:54;;;;;;;9.60;6.50;;;3.10;99.90;;;;;;1902108;74;21118;-86
2021/12/10 00:06:49;;;;;;;11.75;7.35;;;3.10;99.90;;;;;;1907858;75;21138;-86
2021/12/10 00:12:24;;;;;;;11.68;7.08;;;3.20;99.90;;;;;;1945775;72;22213;-86
2021/12/10 00:15:15;;;;;;;11.43;7.55;;;3.10;99.90;;;;;;1903413;75;21079;-86
2021/12/10 00:20:56;;;;;;;9.00;6.42;;;3.10;99.90;;;;;;1957625;72;22182;-86
2021/12/10 00:23:46;;;;;;;9.00;5.87;;;3.10;99.90;;;;;;1917237;74;21125;-87
2021/12/10 00:26:37;;;;;;;7.92;5.72;;;3.00;99.90;;;;;;1917603;74;21059;-86
2021/12/10 00:29:28;;;;;;;7.72;5.37;;;2.90;99.90;;;;;;1940486;73;21051;-86
2021/12/10 00:32:41;;;;;;;7.45;5.42;;;3.00;99.90;;;;;;1917714;75;21150;-87
2021/12/10 00:38:16;;;;;;;7.37;5.15;;;2.90;99.90;;;;;;1954955;72;22135;-87
2021/12/10 00:41:09;;;;;;;8.50;5.67;;;3.00;99.90;;;;;;1924627;73;21087;-87
2021/12/10 00:44:01;;;;;;;7.67;5.80;;;3.00;99.90;;;;;;1928865;73;21036;-87
2021/12/10 00:46:53;;;;;;;11.30;6.62;;;3.10;99.90;;;;;;1946427;73;21144;-87
2021/12/10 00:50:04;;;;;;;9.20;6.12;;;3.10;99.90;;;;;;1924090;73;21109;-86
2021/12/10 00:52:56;;;;;;;9.85;7.03;;;3.10;99.90;;;;;;1930766;73;21048;-86
2021/12/10 00:55:49;;;;;;;9.30;6.60;;;3.00;99.90;;;;;;1940563;73;21042;-86
2021/12/10 00:58:41;;;;;;;8.68;5.90;;;3.00;99.90;;;;;;1938254;73;21142;-86
2021/12/10 01:01:34;;;;;;;8.50;6.05;;;3.10;99.90;;;;;;1931412;73;21152;-86
2021/12/10 01:04:29;;;;;;;10.48;5.58;;;3.10;99.90;;;;;;1921589;73;21144;-86
2021/12/10 01:07:24;;;;;;;6.45;4.60;;;3.10;99.90;;;;;;1928134;73;21116;-86
2021/12/10 01:10:18;;;;;;;6.47;4.78;;;3.20;99.90;;;;;;1944504;73;21055;-87
2021/12/10 01:13:13;;;;;;;7.37;4.83;;;3.30;99.90;;;;;;1940969;73;21113;-86
2021/12/10 01:24:38;;;;;;;5.87;4.10;;;3.20;99.90;;;;;;1886416;75;21160;-87
2021/12/10 01:27:32;;;;;;;5.83;4.37;;;3.30;99.90;;;;;;1893127;75;21110;-88
2021/12/10 01:30:27;;;;;;;6.20;4.53;;;3.20;99.90;;;;;;1913855;75;21099;-88
2021/12/10 01:33:37;;;;;;;7.97;4.78;;;3.20;99.90;;;;;;1900075;75;21015;-86
2021/12/10 01:36:29;;;;;;;6.67;5.00;;;3.30;99.90;;;;;;1917691;75;21099;-85
2021/12/10 01:39:23;;;;;;;7.70;4.72;;;3.30;99.90;;;;;;1900350;75;21047;-86
2021/12/10 01:42:30;;;;;;;8.03;4.87;;;3.30;99.90;;;;;;1907619;75;21152;-88
2021/12/10 01:45:19;;;;;;;6.00;4.80;;;3.20;99.90;;;;;;1907319;75;21068;-87
2021/12/10 01:50:51;;;;;;;8.28;5.95;;;3.30;99.90;;;;;;1933466;72;22181;-87
2021/12/10 01:53:46;;;;;;;7.75;5.95;;;3.30;99.90;;;;;;1915574;75;21043;-86
2021/12/10 01:59:19;;;;;;;7.60;5.08;;;3.20;99.90;;;;;;1959476;72;22208;-87
2021/12/10 02:02:12;;;;;;;7.37;5.05;;;3.20;99.90;;;;;;1917602;75;21164;-86
2021/12/10 02:05:08;;;;;;;6.95;4.80;;;3.20;99.90;;;;;;1917315;75;21113;-86
2021/12/10 02:07:59;;;;;;;7.33;4.70;;;3.20;99.90;;;;;;1939206;73;21080;-86
2021/12/10 02:11:10;;;;;;;6.83;4.62;;;3.30;99.90;;;;;;1917510;75;21121;-86
2021/12/10 02:16:43;;;;;;;4.05;2.50;;;3.30;99.90;;;;;;1942573;72;22664;-87
2021/12/10 02:22:13;;;;;;;4.03;3.17;;;3.40;99.90;;;;;;1961852;72;22233;-86
2021/12/10 02:25:07;;;;;;;4.45;3.50;;;3.40;99.90;;;;;;1917708;75;21151;-86
2021/12/10 02:28:00;;;;;;;5.47;3.85;;;3.50;99.90;;;;;;1921392;73;21055;-86
2021/12/10 02:30:51;;;;;;;4.75;3.67;;;3.50;99.90;;;;;;1917716;75;21149;-86
2021/12/10 02:36:44;;;;;;;5.15;3.80;;;3.50;99.90;;;;;;1944096;72;22140;-87
2021/12/10 02:39:36;;;;;;;7.03;2.80;;;3.50;99.90;;;;;;1892749;75;21161;-86
2021/12/10 02:42:28;;;;;;;3.77;2.80;;;3.50;99.90;;;;;;1895653;75;21160;-87
2021/12/10 02:45:22;;;;;;;4.25;2.85;;;3.60;99.90;;;;;;1906714;75;21094;-86
2021/12/10 02:48:33;;;;;;;2.80;2.37;;;3.50;99.90;;;;;;1903372;75;21110;-86
2021/12/10 02:51:26;;;;;;;3.95;2.83;;;3.60;99.90;;;;;;1899167;75;21100;-86
2021/12/10 02:54:22;;;;;;;5.10;2.70;;;3.60;99.90;;;;;;1915861;75;21116;-86
2021/12/10 02:57:13;;;;;;;3.05;2.25;;;3.50;99.90;;;;;;1895495;75;21118;-86
2021/12/10 03:00:07;;;;;;;6.95;3.05;;;3.50;99.90;;;;;;1912157;75;21055;-87
2021/12/10 03:02:59;;;;;;;3.72;2.45;;;3.50;99.90;;;;;;1900558;75;21087;-87
2021/12/10 03:05:51;;;;;;;3.35;2.72;;;3.70;99.90;;;;;;1896222;75;21149;-88
2021/12/10 03:11:25;;;;;;;4.83;3.22;;;3.70;99.90;;;;;;1934699;72;22250;-87
2021/12/10 03:17:03;;;;;;;6.08;4.12;;;3.70;99.90;;;;;;1952099;72;22102;-86
2021/12/10 03:19:54;;;;;;;5.20;3.70;;;3.60;99.90;;;;;;1930330;73;21055;-87
2021/12/10 03:22:46;;;;;;;7.37;3.45;;;3.60;99.90;;;;;;1917781;75;21086;-86
2021/12/10 03:25:37;;;;;;;5.78;3.92;;;3.70;99.90;;;;;;1926043;73;21130;-86
2021/12/10 03:28:48;;;;;;;6.40;3.90;;;3.60;99.90;;;;;;1933457;73;21521;-86
2021/12/10 03:31:40;;;;;;;4.83;3.58;;;3.60;99.90;;;;;;1940921;73;21097;-86
2021/12/10 03:34:31;;;;;;;4.53;3.72;;;3.50;99.90;;;;;;1917901;75;21118;-86
2021/12/10 03:37:23;;;;;;;4.92;3.98;;;3.40;99.90;;;;;;1924764;73;21051;-86
2021/12/10 03:40:17;;;;;;;3.17;2.60;;;3.30;99.90;;;;;;1925891;73;21152;-86
2021/12/10 03:45:56;;;;;;;4.75;2.50;;;3.10;99.90;;;;;;1947769;72;20228;-86
2021/12/10 03:48:47;;;;;;;4.03;1.92;;;3.00;99.90;;;;;;1907028;75;21043;-86
2021/12/10 03:51:39;;;;;;;5.97;2.20;;;3.00;99.90;;;;;;1902274;75;21175;-86
2021/12/10 03:54:31;;;;;;;4.20;2.95;;;3.00;99.90;;;;;;1905158;75;21121;-86
2021/12/10 03:57:40;;;;;;;4.53;2.83;;;3.00;99.90;;;;;;1896090;75;21140;-86
2021/12/10 04:00:35;;;;;;;2.33;1.65;;;3.00;99.90;;;;;;1906890;75;21121;-86
2021/12/10 04:03:28;;;;;;;4.15;1.87;;;3.00;99.90;;;;;;1907128;75;21078;-85
2021/12/10 04:06:19;;;;;;;3.45;1.37;;;2.90;99.90;;;;;;1903097;75;21128;-86
2021/12/10 04:09:12;;;;;;;1.87;0.95;;;3.00;99.90;;;;;;1898095;75;21326;-86
2021/12/10 04:12:07;;;;;;;1.15;0.85;;;3.10;99.90;;;;;;1895811;75;21483;-86
2021/12/10 04:14:57;;;;;;;0.93;0.57;;;3.10;99.90;;;;;;1892348;75;21066;-86
2021/12/10 04:20:31;;;;;;;0.40;0.20;;;3.20;99.90;;;;;;1923321;72;22256;-85
2021/12/10 04:26:00;;;;;;;0.68;0.30;;;3.20;99.90;;;;;;1954305;72;22559;-87
2021/12/10 04:28:53;;;;;;;0.25;0.25;;;3.20;99.90;;;;;;1884763;76;21156;-86
2021/12/10 04:31:44;;;;;;;0.37;0.25;;;3.10;99.90;;;;;;1896422;75;21112;-85
2021/12/10 04:34:36;;;;;;;0.50;0.37;;;3.20;99.90;;;;;;1898310;75;21044;-87
2021/12/10 04:37:49;;;;;;;0.42;0.20;;;3.20;99.90;;;;;;1912173;75;21112;-86
2021/12/10 04:40:40;;;;;;;0.35;0.33;;;3.20;99.90;;;;;;1906805;75;21113;-86
2021/12/10 04:46:11;;;;;;;0.70;0.30;;;3.20;99.90;;;;;;1942691;72;22171;-86
2021/12/10 04:49:05;;;;;;;0.37;0.20;;;3.20;99.90;;;;;;1917760;75;21078;-87
2021/12/10 04:51:57;;;;;;;1.55;0.35;;;3.20;99.90;;;;;;1910718;74;21081;-86
2021/12/10 04:54:49;;;;;;;0.57;0.30;;;3.30;99.90;;;;;;1911899;75;21101;-86
2021/12/10 04:57:59;;;;;;;0.47;0.33;;;3.30;99.90;;;;;;1900577;75;21030;-87
2021/12/10 05:03:29;;;;;;;0.90;0.10;;;3.40;99.90;;;;;;1933150;72;22270;-86
2021/12/10 05:08:59;;;;;;;0.33;0.20;;;3.50;99.90;;;;;;1949748;72;22318;-87
2021/12/10 05:11:52;;;;;;;0.50;0.20;;;3.60;99.90;;;;;;1929521;73;21075;-86
2021/12/10 05:14:43;;;;;;;0.60;0.23;;;3.70;99.90;;;;;;1957895;73;21046;-86
2021/12/10 05:17:35;;;;;;;0.13;0.13;;;3.70;99.90;;;;;;1941794;73;21077;-87
2021/12/10 05:20:48;;;;;;;0.10;0.10;;;3.80;99.90;;;;;;1929296;73;21082;-86
2021/12/10 05:23:39;;;;;;;0.10;0.10;;;3.90;99.90;;;;;;1928958;73;21038;-86
2021/12/10 05:26:31;;;;;;;0.20;0.20;;;4.00;99.90;;;;;;1930592;73;21101;-86
2021/12/10 05:29:22;;;;;;;0.40;0.40;;;4.10;99.90;;;;;;1935667;73;21046;-86
2021/12/10 05:32:17;;;;;;;0.30;0.30;;;4.10;99.90;;;;;;1939809;73;21050;-86
2021/12/10 05:37:45;;;;;;;0.10;0.10;;;4.20;99.90;;;;;;1949425;72;22851;-87
2021/12/10 05:40:37;;;;;;;0.23;0.13;;;4.30;99.90;;;;;;1906052;75;21088;-87
2021/12/10 05:46:08;;;;;;;0.28;0.20;;;4.30;99.90;;;;;;1944284;72;22173;-86
2021/12/10 05:48:59;;;;;;;0.17;0.10;;;4.30;99.90;;;;;;1921691;73;21049;-86
2021/12/10 05:51:51;;;;;;;0.17;0.10;;;4.30;99.90;;;;;;1930718;73;21522;-87
2021/12/10 05:54:43;;;;;;;0.42;0.30;;;4.30;99.90;;;;;;1917720;75;21529;-86
2021/12/10 05:57:54;;;;;;;0.17;0.10;;;4.30;99.90;;;;;;1932195;73;21055;-86
2021/12/10 06:00:48;;;;;;;0.20;0.10;;;4.30;99.90;;;;;;1917610;75;21124;-86
2021/12/10 06:06:19;;;;;;;0.10;0.10;;;4.40;99.90;;;;;;1954650;72;22172;-87
2021/12/10 06:11:48;;;;;;;0.20;0.20;;;4.40;99.90;;;;;;1949017;72;22247;-86
2021/12/10 06:14:40;;;;;;;0.28;0.20;;;4.50;99.90;;;;;;1906546;75;21104;-86
2021/12/10 06:17:32;;;;;;;0.10;0.10;;;4.40;99.90;;;;;;1901279;75;21092;-86
2021/12/10 06:20:26;;;;;;;0.13;0.10;;;4.50;99.90;;;;;;1917383;75;21052;-87
2021/12/10 06:26:17;;;;;;;0.10;0.10;;;4.40;99.90;;;;;;1944957;72;22218;-87
2021/12/10 06:31:49;;;;;;;0.30;0.17;;;4.30;99.90;;;;;;1955882;72;22122;-86
2021/12/10 06:34:40;;;;;;;1.05;0.50;;;4.30;99.90;;;;;;1902538;74;21094;-86
2021/12/10 06:37:31;;;;;;;1.02;0.20;;;4.30;99.90;;;;;;1895285;75;21092;-86
2021/12/10 06:40:25;;;;;;;0.33;0.28;;;4.30;99.90;;;;;;1917533;75;21197;-87
2021/12/10 06:43:35;;;;;;;0.95;0.20;;;4.40;99.90;;;;;;1896608;75;21328;-86
2021/12/10 06:46:27;;;;;;;0.28;0.20;;;4.30;99.90;;;;;;1878425;76;21102;-87
2021/12/10 06:49:20;;;;;;;0.10;0.10;;;4.30;99.90;;;;;;1917527;75;21157;-87
2021/12/10 06:52:12;;;;;;;0.68;0.10;;;4.30;99.90;;;;;;1895604;75;21062;-86
2021/12/10 06:55:04;;;;;;;1.07;0.50;;;4.40;99.90;;;;;;1910231;75;21193;-87
2021/12/10 06:57:55;;;;;;;0.62;0.20;;;4.40;99.90;;;;;;1904499;75;21186;-87
2021/12/10 07:00:50;;;;;;;0.20;0.20;;;4.50;99.90;;;;;;1914654;75;21113;-87
2021/12/10 07:03:43;;;;;;;0.65;0.30;;;4.50;99.90;;;;;;1895141;75;21055;-86
2021/12/10 07:06:35;;;;;;;1.50;0.80;;;4.50;99.90;;;;;;1884448;76;21591;-87
2021/12/10 07:09:27;;;;;;;0.93;0.35;;;4.50;99.90;;;;;;1899987;75;21099;-87
2021/12/10 07:12:19;;;;;;;0.57;0.37;;;4.60;99.90;;;;;;1907657;75;21051;-87
2021/12/10 07:17:53;;;;;;;0.47;0.30;;;4.60;99.90;;;;;;1953992;72;22123;-87
2021/12/10 07:20:44;;;;;;;1.25;0.47;;;4.60;99.90;;;;;;1951202;73;21141;-87
2021/12/10 07:23:38;;;;;;;2.02;0.50;;;4.60;99.90;;;;;;1917739;73;21094;-87
2021/12/10 07:26:31;;;;;;;1.92;0.57;;;4.60;99.90;;;;;;1917412;75;21141;-87
2021/12/10 07:29:41;;;;;;;0.53;0.40;;;4.60;99.90;;;;;;1917229;73;21206;-88
2021/12/10 07:32:33;;;;;;;3.10;0.53;;;4.60;99.90;;;;;;1917540;75;21210;-88
2021/12/10 07:38:04;;;;;;;1.42;1.00;;;4.50;99.90;;;;;;1945058;72;22209;-87
2021/12/10 07:40:57;;;;;;;1.70;0.78;;;4.50;99.90;;;;;;1906453;75;21103;-87
2021/12/10 07:43:51;;;;;;;1.37;0.50;;;4.50;99.90;;;;;;1886235;73;21102;-86
2021/12/10 07:46:42;;;;;;;1.42;0.47;;;4.50;99.90;;;;;;1895580;73;21112;-86
2021/12/10 07:52:34;;;;;;;0.45;0.23;;;4.50;99.90;;;;;;1937879;72;22115;-86
2021/12/10 07:55:27;;;;;;;0.72;0.33;;;4.60;99.90;;;;;;1889372;75;21111;-87
2021/12/10 07:58:20;;;;;;;0.70;0.28;;;4.50;99.90;;;;;;1891978;75;21051;-85
2021/12/10 08:01:14;;;;;;;0.65;0.30;;;4.50;99.90;;;;;;1872776;76;21611;-86
2021/12/10 08:07:06;;;;;;;0.37;0.30;;;4.40;99.90;;;;;;1947121;72;22201;-87
2021/12/10 08:09:57;;;;;;;0.10;0.10;;;4.40;99.90;;;;;;1906303;75;21100;-87
2021/12/10 08:12:48;;;;;;;0.55;0.40;;;4.40;99.90;;;;;;1902122;75;21165;-87
2021/12/10 08:15:40;;;;;;;0.57;0.23;;;4.40;99.90;;;;;;1918683;73;21086;-87
2021/12/10 08:18:51;;;;;;;0.82;0.30;;;4.40;99.90;;;;;;1906117;75;21158;-87
2021/12/10 08:21:43;;;;;;;0.78;0.20;;;4.50;99.90;;;;;;1893231;75;21162;-87
2021/12/10 08:24:35;;;;;;;0.53;0.37;;;4.40;99.90;;;;;;1911673;75;21175;-88
2021/12/10 08:27:27;;;;;;;0.82;0.50;;;4.40;99.90;;;;;;1898482;75;21602;-88
2021/12/10 08:33:10;;;;;;;2.75;0.75;;;4.00;99.90;;;;;;1948681;72;20123;-88
2021/12/10 08:36:01;;;;;;;3.77;1.20;;;3.80;99.90;;;;;;1919149;73;21067;-87
2021/12/10 08:41:34;;;;;;;3.65;1.50;;;3.40;99.90;;;;;;1963799;72;22079;-88
2021/12/10 08:47:04;;;;;;;3.52;1.42;;;3.20;99.90;;;;;;1926723;72;22293;-88
2021/12/10 08:49:56;;;;;;;2.22;1.40;;;3.10;99.90;;;;;;1895820;75;21110;-87
2021/12/10 08:52:47;;;;;;;4.25;1.50;;;3.10;99.90;;;;;;1908383;75;21063;-88
2021/12/10 08:55:40;;;;;;;3.22;1.75;;;3.00;99.90;;;;;;1902824;75;21546;-87
2021/12/10 09:01:32;;;;;;;1.92;1.50;;;3.10;99.90;;;;;;1957902;72;22123;-87
2021/12/10 09:04:25;;;;;;;3.12;1.98;;;2.90;99.90;;;;;;1917349;75;21163;-87
2021/12/10 09:07:18;;;;;;;2.72;1.72;;;2.80;99.90;;;;;;1910113;75;21084;-88
2021/12/10 09:15:45;;;;;;;2.00;1.80;;;2.80;99.90;;;;;;1940295;72;22094;-87
2021/12/10 09:18:48;;;;;;;3.90;1.85;;;2.70;99.90;;;;;;1919945;73;21216;-88
2021/12/10 09:21:50;;;;;;;3.58;2.20;;;2.50;99.90;;;;;;1930506;73;21141;-86
2021/12/10 09:24:51;;;;;;;4.00;2.30;;;2.30;99.90;;;;;;1929700;73;21106;-89
2021/12/10 09:31:53;;;;;;;2.37;1.72;;;2.30;99.90;;;;;;1943539;72;22162;-88
2021/12/10 09:34:45;;;;;;;2.08;1.80;;;2.40;99.90;;;;;;1922681;74;21090;-88
2021/12/10 09:37:38;;;;;;;1.80;1.37;;;2.40;99.90;;;;;;1924870;73;21204;-87
2021/12/10 09:40:34;;;;;;;4.12;1.70;;;2.50;99.90;;;;;;1925530;73;21123;-87
2021/12/10 09:46:35;;;;;;;3.15;1.95;;;2.30;99.90;;;;;;1957048;72;22298;-88
2021/12/10 09:49:29;;;;;;;4.55;2.20;;;2.30;99.90;;;;;;1932986;73;21541;-88
2021/12/10 09:52:23;;;;;;;2.55;1.98;;;2.30;99.90;;;;;;1917074;75;21067;-87
2021/12/10 09:57:57;;;;;;;2.45;2.20;;;2.30;99.90;;;;;;1957525;72;22331;-87
2021/12/10 10:03:32;;;;;;;2.83;2.37;;;2.30;99.90;;;;;;1953982;72;22173;-87
2021/12/10 10:06:24;;;;;;;2.45;2.25;;;2.30;99.90;;;;;;1891261;75;21122;-88
2021/12/10 10:12:03;;;;;;;2.50;1.98;;;2.20;99.90;;;;;;1968537;72;22249;-88
2021/12/10 10:14:55;;;;;;;5.40;2.55;;;2.20;99.90;;;;;;1908131;74;21066;-89
2021/12/10 10:17:49;;;;;;;3.08;1.90;;;2.20;99.90;;;;;;1938745;74;21118;-89
2021/12/10 10:20:44;;;;;;;2.70;2.00;;;2.20;99.90;;;;;;1931853;74;21217;-88
2021/12/10 10:26:35;;;;;;;2.90;2.25;;;2.20;99.90;;;;;;1946542;72;22305;-88
2021/12/10 10:29:33;;;;;;;2.80;2.60;;;2.20;99.90;;;;;;1921149;74;21107;-88
2021/12/10 10:32:27;;;;;;;3.15;2.60;;;2.20;99.90;;;;;;1905055;75;21110;-78
2021/12/10 10:35:22;;;;;;;3.22;2.50;;;2.30;99.90;;;;;;1904689;75;21122;-82
2021/12/10 10:41:12;;;;;;;3.10;2.50;;;2.40;99.90;;;;;;1946507;72;22207;-84
2021/12/10 10:44:04;;;;;;;3.65;2.47;;;2.50;99.90;;;;;;1917436;75;21129;-84
2021/12/10 10:46:59;;;;;;;3.37;2.35;;;2.60;99.90;;;;;;1939630;73;21132;-82
2021/12/10 10:49:56;;;;;;;3.85;2.50;;;2.60;99.90;;;;;;1925620;73;21191;-83
2021/12/10 10:53:09;;;;;;;4.85;2.40;;;2.60;99.90;;;;;;1931852;73;21105;-84
2021/12/10 10:56:03;;;;;;;4.25;2.37;;;2.70;99.90;;;;;;1917498;75;21102;-82
2021/12/10 11:01:41;;;;;;;7.50;2.47;;;2.60;99.90;;;;;;1957663;72;22087;-82
2021/12/10 11:07:14;;;;;;;4.92;2.62;;;2.80;99.90;;;;;;1937737;72;22195;-83
2021/12/10 11:10:08;;;;;;;4.97;3.20;;;2.80;99.90;;;;;;1894805;75;21079;-83
2021/12/10 11:16:04;;;;;;;3.20;2.33;;;3.00;99.90;;;;;;1956487;72;22122;-83
2021/12/10 11:21:43;;;;;;;4.03;2.27;;;3.30;99.90;;;;;;1927855;72;22537;-83
2021/12/10 11:24:45;;;;;;;3.27;2.27;;;3.40;99.90;;;;;;1903565;75;21080;-83
2021/12/10 11:27:40;;;;;;;2.17;1.98;;;3.50;99.90;;;;;;1884149;75;21150;-83
2021/12/10 11:30:34;;;;;;;4.53;2.62;;;3.50;99.90;;;;;;1888858;75;21099;-83
2021/12/10 11:36:26;;;;;;;4.37;2.90;;;3.70;99.90;;;;;;1951933;72;22170;-83
2021/12/10 11:39:17;;;;;;;3.52;2.22;;;3.70;99.90;;;;;;1925765;73;21067;-83
2021/12/10 11:42:35;;;;;;;3.35;2.20;;;3.80;99.90;;;;;;1926335;74;21220;-83
2021/12/10 11:45:33;;;;;;;2.30;1.95;;;3.90;99.90;;;;;;1927561;73;21120;-82
2021/12/10 11:51:32;;;;;;;2.62;1.70;;;4.00;99.90;;;;;;1939268;72;22792;-83
2021/12/10 11:57:12;;;;;;;3.25;1.98;;;4.10;99.90;;;;;;1953651;72;22295;-83
2021/12/10 12:00:07;;;;;;;2.65;1.80;;;4.20;99.90;;;;;;1884965;75;21115;-83
2021/12/10 12:03:07;;;;;;;3.47;2.33;;;4.30;99.90;;;;;;1886933;75;21055;-83
2021/12/10 12:08:40;;;;;;;3.50;2.50;;;4.40;99.90;;;;;;1945815;72;22238;-83
2021/12/10 12:11:32;;;;;;;3.90;2.35;;;4.30;99.90;;;;;;1885788;75;21077;-82
2021/12/10 12:17:10;;;;;;;3.62;3.02;;;4.40;99.90;;;;;;1939353;72;28503;-82
2021/12/10 12:20:06;;;;;;;3.30;1.95;;;4.50;99.90;;;;;;1911304;74;21110;-83
2021/12/10 12:26:21;;;;;;;2.72;2.20;;;4.00;99.90;;;;;;1906291;75;21122;-84
2021/12/10 12:29:36;;;;;;;2.83;2.20;;;4.00;99.90;;;;;;1884382;76;21133;-82
2021/12/10 12:32:32;;;;;;;3.22;2.40;;;3.80;99.90;;;;;;1904643;75;21188;-83
2021/12/10 12:35:27;;;;;;;3.22;2.85;;;3.80;99.90;;;;;;1884261;75;21162;-83
2021/12/10 12:38:23;;;;;;;3.30;2.77;;;3.80;99.90;;;;;;1896546;75;21072;-82
2021/12/10 12:41:20;;;;;;;4.35;2.80;;;3.90;99.90;;;;;;1886942;75;21075;-83
2021/12/10 12:44:22;;;;;;;3.58;2.80;;;3.90;99.90;;;;;;1906494;75;21117;-82
2021/12/10 12:47:16;;;;;;;3.47;2.77;;;4.00;99.90;;;;;;1906491;75;21103;-83
2021/12/10 12:50:12;;;;;;;4.87;3.42;;;4.10;99.90;;;;;;1884348;75;21108;-82
2021/12/10 12:53:07;;;;;;;5.03;3.42;;;4.20;99.90;;;;;;1884725;76;21090;-81
2021/12/10 12:56:05;;;;;;;4.95;2.80;;;4.30;99.90;;;;;;1906563;74;21656;-82
2021/12/10 12:59:01;;;;;;;2.55;1.40;;;4.40;99.90;;;;;;1906900;75;21427;-82
2021/12/10 13:01:56;;;;;;;2.25;1.27;;;4.50;99.90;;;;;;1906479;75;21078;-82
2021/12/10 13:04:49;;;;;;;1.12;1.00;;;4.60;99.90;;;;;;1903985;75;21062;-82
2021/12/10 13:08:08;;;;;;;1.45;1.10;;;4.90;99.90;;;;;;1898529;75;21098;-83
2021/12/10 13:11:25;;;;;;;3.33;1.70;;;5.10;99.90;;;;;;1904375;75;21088;-82
2021/12/10 13:14:18;;;;;;;2.35;1.67;;;5.30;99.90;;;;;;1883045;76;21122;-82
2021/12/10 13:17:15;;;;;;;4.55;2.35;;;5.30;99.90;;;;;;1886927;75;21083;-82
2021/12/10 13:20:12;;;;;;;3.45;2.20;;;5.50;99.90;;;;;;1883028;75;21099;-82
2021/12/10 13:23:08;;;;;;;5.00;2.05;;;5.50;99.90;;;;;;1901654;75;21096;-82
2021/12/10 13:26:01;;;;;;;2.97;2.00;;;5.50;99.90;;;;;;1896901;75;21090;-82
2021/12/10 13:28:54;;;;;;;2.52;2.00;;;5.50;99.90;;;;;;1900384;75;21059;-82
2021/12/10 13:31:49;;;;;;;3.10;2.00;;;5.40;99.90;;;;;;1893111;75;21627;-82
2021/12/10 13:34:42;;;;;;;1.12;0.85;;;5.50;99.90;;;;;;1882325;75;21059;-82
2021/12/10 13:37:35;;;;;;;2.15;1.00;;;5.60;99.90;;;;;;1894792;75;21117;-82
2021/12/10 13:40:32;;;;;;;3.10;1.00;;;5.50;99.90;;;;;;1897495;75;21063;-82
2021/12/10 13:43:23;;;;;;;1.50;1.07;;;5.40;99.90;;;;;;1886117;75;21110;-83
2021/12/10 13:46:18;;;;;;;2.15;0.93;;;5.40;99.90;;;;;;1893667;75;21060;-82
2021/12/10 13:49:11;;;;;;;1.35;1.10;;;5.20;99.90;;;;;;1893508;75;21202;-82
2021/12/10 13:52:02;;;;;;;2.62;1.40;;;5.30;99.90;;;;;;1893742;75;21044;-82
2021/12/10 13:54:55;;;;;;;3.08;1.57;;;5.30;99.90;;;;;;1901952;75;21141;-83
2021/12/10 13:57:52;;;;;;;1.60;1.00;;;5.30;99.90;;;;;;1884540;75;21049;-83
2021/12/10 14:00:48;;;;;;;1.25;0.85;;;5.30;99.90;;;;;;1908460;75;21133;-83
2021/12/10 14:03:47;;;;;;;2.52;1.10;;;5.40;99.90;;;;;;1878007;75;21168;-83
2021/12/10 14:06:47;;;;;;;2.10;1.62;;;5.30;99.90;;;;;;1872579;75;21048;-82
2021/12/10 14:09:43;;;;;;;1.75;1.10;;;5.40;99.90;;;;;;1897795;75;21125;-83
2021/12/10 14:12:40;;;;;;;2.47;1.07;;;5.40;99.90;;;;;;1898974;75;21090;-83
2021/12/10 14:15:39;;;;;;;5.28;2.33;;;5.30;99.90;;;;;;1894697;75;21138;-82
2021/12/10 14:18:34;;;;;;;2.10;1.30;;;5.20;99.90;;;;;;1909643;74;21091;-83
2021/12/10 14:21:27;;;;;;;7.03;1.50;;;5.20;99.90;;;;;;1906130;75;21142;-82
2021/12/10 14:24:27;;;;;;;3.52;1.42;;;5.30;99.90;;;;;;1904067;75;21224;-82
2021/12/10 14:27:23;;;;;;;1.82;1.30;;;5.30;99.90;;;;;;1883812;76;21161;-82
2021/12/10 14:30:23;;;;;;;2.27;1.52;;;5.30;99.90;;;;;;1897376;75;21060;-83
2021/12/10 14:33:20;;;;;;;2.58;1.60;;;5.20;99.90;;;;;;1915788;75;21047;-83
2021/12/10 14:36:22;;;;;;;4.03;1.85;;;5.20;99.90;;;;;;1894693;75;21092;-82
2021/12/10 14:39:15;;;;;;;4.92;1.60;;;5.30;99.90;;;;;;1914782;73;21054;-82
2021/12/10 14:42:14;;;;;;;4.70;2.40;;;5.30;99.90;;;;;;1914144;73;21512;-83
2021/12/10 14:45:11;;;;;;;3.67;2.55;;;5.30;99.90;;;;;;1903446;73;21050;-82
2021/12/10 14:51:08;;;;;;;5.28;3.10;;;5.30;99.90;;;;;;1937020;72;22138;-82
2021/12/10 14:54:08;;;;;;;5.15;3.47;;;5.30;99.90;;;;;;1897716;73;21113;-82
2021/12/10 14:57:02;;;;;;;7.55;3.47;;;5.40;99.90;;;;;;1894540;75;21150;-82
2021/12/10 14:59:55;;;;;;;5.00;3.80;;;5.40;99.90;;;;;;1891488;75;21358;-81
2021/12/10 15:03:10;;;;;;;5.55;3.80;;;5.40;99.90;;;;;;1890485;75;21056;-81
2021/12/10 15:06:05;;;;;;;5.67;4.03;;;5.30;99.90;;;;;;1886710;75;21814;-82
2021/12/10 15:09:04;;;;;;;3.85;3.45;;;5.20;99.90;;;;;;1883369;75;21131;-82
2021/12/10 15:12:00;;;;;;;4.20;3.27;;;5.10;99.90;;;;;;1892506;75;21135;-83
2021/12/10 15:14:59;;;;;;;6.05;3.47;;;5.10;99.90;;;;;;1872380;75;21089;-83
2021/12/10 15:17:52;;;;;;;4.30;3.37;;;5.20;99.90;;;;;;1893212;75;21060;-83
2021/12/10 15:20:44;;;;;;;4.67;3.83;;;5.10;99.90;;;;;;1929820;73;21055;-82
2021/12/10 15:23:36;;;;;;;3.35;2.35;;;5.10;99.90;;;;;;1895807;73;21625;-81
2021/12/10 15:26:30;;;;;;;5.15;3.40;;;5.20;99.90;;;;;;1883322;75;21140;-82
2021/12/10 15:29:27;;;;;;;6.20;4.15;;;5.20;99.90;;;;;;1874006;75;21152;-82
2021/12/10 15:32:22;;;;;;;6.25;4.67;;;5.20;99.90;;;;;;1872623;75;21128;-82
2021/12/10 15:35:19;;;;;;;5.95;4.83;;;5.20;99.90;;;;;;1872478;76;21175;-82
2021/12/10 15:38:14;;;;;;;5.70;4.87;;;5.00;99.90;;;;;;1882749;75;21089;-82
2021/12/10 15:41:27;;;;;;;6.05;4.95;;;5.00;99.90;;;;;;1882944;75;21135;-84
2021/12/10 15:44:41;;;;;;;6.25;5.05;;;5.00;99.90;;;;;;1883099;75;21191;-83
2021/12/10 15:47:34;;;;;;;5.50;4.70;;;5.00;99.90;;;;;;1899306;75;21138;-83
2021/12/10 15:50:29;;;;;;;5.55;4.97;;;5.00;99.90;;;;;;1883226;75;21141;-82
2021/12/10 15:53:22;;;;;;;7.22;5.00;;;4.90;99.90;;;;;;1887629;75;21646;-82
2021/12/10 15:56:16;;;;;;;5.85;4.70;;;4.90;99.90;;;;;;1885074;75;21172;-82
2021/12/10 15:59:11;;;;;;;7.20;4.47;;;4.90;99.90;;;;;;1875854;75;21138;-82
2021/12/10 16:02:05;;;;;;;7.10;4.40;;;4.90;99.90;;;;;;1888457;75;21190;-81
2021/12/10 16:05:01;;;;;;;6.65;5.00;;;4.90;99.90;;;;;;1891335;75;21235;-82
2021/12/10 16:07:56;;;;;;;6.72;5.00;;;4.90;99.90;;;;;;1888562;75;21157;-83
2021/12/10 16:10:50;;;;;;;6.53;5.08;;;4.90;99.90;;;;;;1884293;75;21048;-82
2021/12/10 16:13:44;;;;;;;7.03;4.83;;;4.90;99.90;;;;;;1882503;75;21566;-83
2021/12/10 16:16:39;;;;;;;7.47;4.80;;;4.90;99.90;;;;;;1882471;75;21051;-82
2021/12/10 16:19:33;;;;;;;7.47;4.87;;;4.90;99.90;;;;;;1904415;75;21043;-82
2021/12/10 16:22:27;;;;;;;9.05;4.90;;;4.90;99.90;;;;;;1888203;75;21059;-82
2021/12/10 16:25:20;;;;;;;5.40;4.10;;;4.90;99.90;;;;;;1883286;75;21641;-82
2021/12/10 16:28:12;;;;;;;4.62;3.70;;;4.90;99.90;;;;;;1881960;75;21115;-82
2021/12/10 16:31:10;;;;;;;4.25;3.60;;;4.80;99.90;;;;;;1882725;75;21527;-82
2021/12/10 16:34:08;;;;;;;6.08;4.30;;;4.70;99.90;;;;;;1885788;75;21563;-82
2021/12/10 16:36:58;;;;;;;5.65;4.75;;;4.70;99.90;;;;;;1886534;75;21570;-82
2021/12/10 16:39:50;;;;;;;6.92;4.90;;;4.70;99.90;;;;;;1894778;75;21058;-82
2021/12/10 16:45:29;;;;;;;5.92;4.53;;;4.60;99.90;;;;;;1958095;72;22664;-83
2021/12/10 16:48:23;;;;;;;8.08;5.35;;;4.50;99.90;;;;;;1900485;75;21079;-83
2021/12/10 16:51:18;;;;;;;6.80;5.78;;;4.40;99.90;;;;;;1896453;75;21095;-83
2021/12/10 16:54:14;;;;;;;7.12;5.22;;;4.40;99.90;;;;;;1887732;75;21063;-83
2021/12/10 16:57:27;;;;;;;7.25;3.33;;;4.50;99.90;;;;;;1914016;75;21028;-83
2021/12/10 17:00:22;;;;;;;4.15;2.80;;;4.60;99.90;;;;;;1895616;75;21120;-82
2021/12/10 17:03:18;;;;;;;2.70;1.72;;;4.70;99.90;;;;;;1896688;75;21082;-82
2021/12/10 17:06:13;;;;;;;2.92;2.10;;;4.80;99.90;;;;;;1901604;75;21043;-83
2021/12/10 17:09:07;;;;;;;4.25;2.20;;;4.90;99.90;;;;;;1897003;75;21088;-83
2021/12/10 17:12:02;;;;;;;2.45;1.50;;;4.90;99.90;;;;;;1895143;75;21058;-83
2021/12/10 17:17:35;;;;;;;1.92;1.10;;;5.00;99.90;;;;;;1955257;72;22143;-84
2021/12/10 17:20:29;;;;;;;1.90;1.20;;;5.10;99.90;;;;;;1896091;75;21187;-82
2021/12/10 17:23:23;;;;;;;2.85;1.17;;;5.10;99.90;;;;;;1895441;75;21146;-83
2021/12/10 17:26:20;;;;;;;2.17;1.30;;;5.20;99.90;;;;;;1915687;75;21536;-82
2021/12/10 17:29:33;;;;;;;2.40;1.40;;;5.20;99.90;;;;;;1908366;75;21153;-82
2021/12/10 17:32:27;;;;;;;3.70;1.72;;;5.20;99.90;;;;;;1912258;75;21039;-82
2021/12/10 17:35:22;;;;;;;4.47;2.05;;;5.20;99.90;;;;;;1899697;75;21569;-82
2021/12/10 17:38:16;;;;;;;4.62;1.82;;;5.30;99.90;;;;;;1895241;75;21059;-82
2021/12/10 17:41:11;;;;;;;4.83;1.00;;;5.30;99.90;;;;;;1889110;75;21119;-82
2021/12/10 17:44:06;;;;;;;2.98;0.80;;;5.50;99.90;;;;;;1886174;75;21066;-82
2021/12/10 17:49:43;;;;;;;3.83;1.82;;;5.90;99.90;;;;;;1965159;72;22162;-88
2021/12/10 17:55:31;;;;;;;5.58;4.70;;;5.80;99.90;;;;;;1950358;72;22261;-87
2021/12/10 17:58:25;;;;;;;7.45;5.55;;;5.40;99.90;;;;;;1917676;75;21129;-91
2021/12/10 18:01:19;;;;;;;8.73;5.90;;;5.20;99.90;;;;;;1917720;75;21209;-90
2021/12/10 18:04:14;;;;;;;5.50;4.12;;;5.00;99.90;;;;;;1917405;75;21080;-90